createdAt,value
2022-11-08T00:00:12.744Z,10.67
2022-11-08T00:02:40.010Z,10.71
2022-11-08T00:05:26.058Z,10.56
2022-11-08T00:08:11.779Z,10.72
2022-11-08T00:10:57.386Z,10.68
2022-11-08T00:13:42.713Z,10.60
2022-11-08T00:16:09.786Z,10.64
2022-11-08T00:18:36.884Z,10.65
2022-11-08T00:21:04.216Z,10.60
2022-11-08T00:23:31.308Z,10.55
2022-11-08T00:25:58.439Z,10.43
2022-11-08T00:28:25.443Z,10.57
2022-11-08T00:30:52.489Z,10.55
2022-11-08T00:33:19.545Z,10.50
2022-11-08T00:35:46.573Z,10.54
2022-11-08T00:38:14.047Z,10.53
2022-11-08T00:40:41.300Z,10.50
2022-11-08T00:43:08.356Z,10.38
2022-11-08T00:45:35.405Z,10.36
2022-11-08T00:48:02.386Z,10.53
2022-11-08T00:50:29.476Z,10.58
2022-11-08T00:52:56.506Z,10.46
2022-11-08T00:55:23.614Z,10.51
2022-11-08T00:57:59.533Z,10.45
2022-11-08T01:00:29.116Z,10.34
2022-11-08T01:03:14.646Z,10.32
2022-11-08T01:05:42.025Z,10.26
2022-11-08T01:08:10.783Z,10.25
2022-11-08T01:10:40.888Z,10.32
2022-11-08T01:13:07.991Z,10.28
2022-11-08T01:15:41.202Z,10.29
2022-11-08T01:18:10.061Z,10.38
2022-11-08T01:20:41.009Z,10.46
2022-11-08T01:23:09.218Z,10.43
2022-11-08T01:25:43.718Z,10.33
2022-11-08T01:28:12.035Z,10.35
2022-11-08T01:30:40.958Z,10.42
2022-11-08T01:33:08.790Z,10.27
2022-11-08T01:35:36.802Z,10.28
2022-11-08T01:38:05.423Z,10.27
2022-11-08T01:40:33.236Z,10.31
2022-11-08T01:43:00.461Z,10.36
2022-11-08T01:46:01.631Z,10.37
2022-11-08T01:48:29.440Z,10.21
2022-11-08T01:51:00.450Z,10.18
2022-11-08T01:53:29.624Z,10.10
2022-11-08T01:55:57.684Z,10.17
2022-11-08T01:58:30.999Z,10.10
2022-11-08T02:01:00.068Z,10.10
2022-11-08T02:03:30.076Z,10.04
2022-11-08T02:05:57.996Z,10.08
2022-11-08T02:08:32.867Z,10.01
2022-11-08T02:11:01.091Z,9.92
2022-11-08T02:13:31.285Z,10.07
2022-11-08T02:15:58.649Z,10.03
2022-11-08T02:18:32.652Z,9.99
2022-11-08T02:21:22.803Z,10.01
2022-11-08T02:23:58.977Z,9.95
2022-11-08T02:26:30.139Z,9.97
2022-11-08T02:28:57.901Z,9.92
2022-11-08T02:31:25.069Z,9.99
2022-11-08T02:33:52.261Z,9.95
2022-11-08T02:36:24.768Z,10.01
2022-11-08T02:38:55.496Z,10.09
2022-11-08T02:41:22.929Z,10.04
2022-11-08T02:43:50.031Z,10.05
2022-11-08T02:46:17.121Z,10.04
2022-11-08T02:48:44.396Z,10.04
2022-11-08T02:51:11.490Z,10.04
2022-11-08T02:53:38.510Z,9.96
2022-11-08T02:56:05.716Z,10.02
2022-11-08T02:58:32.799Z,10.00
2022-11-08T03:00:59.940Z,9.88
2022-11-08T03:03:27.061Z,9.99
2022-11-08T03:05:56.165Z,9.84
2022-11-08T03:08:23.245Z,10.01
2022-11-08T03:10:50.296Z,10.02
2022-11-08T03:13:17.530Z,9.96
2022-11-08T03:15:44.775Z,10.01
2022-11-08T03:18:11.831Z,9.93
2022-11-08T03:20:38.876Z,10.05
2022-11-08T03:23:09.847Z,10.01
2022-11-08T03:25:36.874Z,10.03
2022-11-08T03:28:10.225Z,9.90
2022-11-08T03:30:37.167Z,10.05
2022-11-08T03:33:04.430Z,10.05
2022-11-08T03:35:32.342Z,9.90
2022-11-08T03:37:59.490Z,9.89
2022-11-08T03:40:26.901Z,10.39
2022-11-08T03:42:57.408Z,10.28
2022-11-08T03:45:24.589Z,10.20
2022-11-08T03:47:51.620Z,10.25
2022-11-08T03:50:18.975Z,10.26
2022-11-08T03:52:53.694Z,10.22
2022-11-08T03:55:24.023Z,10.25
2022-11-08T03:57:53.817Z,10.20
2022-11-08T04:00:24.126Z,10.19
2022-11-08T04:02:53.262Z,10.26
2022-11-08T04:05:20.345Z,10.23
2022-11-08T04:07:48.002Z,10.24
2022-11-08T04:10:15.309Z,10.25
2022-11-08T04:13:01.776Z,10.20
2022-11-08T04:15:30.517Z,10.26
2022-11-08T04:18:17.262Z,10.26
2022-11-08T04:21:05.546Z,10.30
2022-11-08T04:23:36.178Z,10.29
2022-11-08T04:26:06.730Z,10.25
2022-11-08T04:28:36.623Z,10.16
2022-11-08T04:31:13.750Z,10.15
2022-11-08T04:33:41.741Z,10.10
2022-11-08T04:36:12.610Z,10.09
2022-11-08T04:38:39.669Z,10.22
2022-11-08T04:41:11.077Z,10.09
2022-11-08T04:43:38.552Z,10.09
2022-11-08T04:46:10.192Z,10.27
2022-11-08T04:48:37.856Z,10.29
2022-11-08T04:51:11.283Z,10.29
2022-11-08T04:53:38.456Z,10.31
2022-11-08T04:56:08.903Z,10.27
2022-11-08T04:58:38.793Z,10.38
2022-11-08T05:01:07.760Z,10.24
2022-11-08T05:03:35.536Z,10.36
2022-11-08T05:06:13.688Z,10.42
2022-11-08T05:08:40.963Z,10.52
2022-11-08T05:11:16.403Z,10.48
2022-11-08T05:13:44.383Z,10.36
2022-11-08T05:16:14.961Z,10.43
2022-11-08T05:18:42.674Z,10.48
2022-11-08T05:21:31.326Z,10.52
2022-11-08T05:24:00.159Z,10.48
2022-11-08T05:26:28.087Z,10.46
2022-11-08T05:28:55.375Z,10.53
2022-11-08T05:31:22.386Z,10.49
2022-11-08T05:33:49.560Z,10.45
2022-11-08T05:36:17.103Z,10.56
2022-11-08T05:38:44.766Z,10.62
2022-11-08T05:41:16.130Z,10.44
2022-11-08T05:43:45.330Z,10.56
2022-11-08T05:46:12.665Z,10.66
2022-11-08T05:48:40.044Z,10.60
2022-11-08T05:51:07.280Z,10.47
2022-11-08T05:53:35.198Z,10.52
2022-11-08T05:56:03.127Z,10.60
2022-11-08T05:58:32.050Z,10.47
2022-11-08T06:01:04.133Z,10.61
2022-11-08T06:03:31.752Z,10.62
2022-11-08T06:06:08.029Z,10.72
2022-11-08T06:08:36.473Z,10.64
2022-11-08T06:11:11.737Z,10.58
2022-11-08T06:13:39.623Z,10.62
2022-11-08T06:16:10.414Z,10.40
2022-11-08T06:18:38.545Z,10.53
2022-11-08T06:21:07.901Z,10.64
2022-11-08T06:23:35.107Z,10.58
2022-11-08T06:26:02.361Z,10.54
2022-11-08T06:28:29.667Z,10.55
2022-11-08T06:30:59.580Z,10.68
2022-11-08T06:33:26.762Z,10.67
2022-11-08T06:35:54.697Z,10.51
2022-11-08T06:38:22.375Z,10.56
2022-11-08T06:40:52.552Z,10.62
2022-11-08T06:43:20.415Z,10.65
2022-11-08T06:45:48.095Z,10.59
2022-11-08T06:48:15.140Z,10.64
2022-11-08T06:50:43.871Z,10.44
2022-11-08T06:53:15.040Z,10.64
2022-11-08T06:55:42.287Z,10.56
2022-11-08T06:58:11.397Z,10.60
2022-11-08T07:00:38.732Z,10.62
2022-11-08T07:03:05.966Z,10.59
2022-11-08T07:05:36.538Z,10.69
2022-11-08T07:08:04.397Z,10.79
2022-11-08T07:10:34.178Z,10.73
2022-11-08T07:13:10.512Z,10.86
2022-11-08T07:15:38.426Z,10.82
2022-11-08T07:18:11.784Z,10.95
2022-11-08T07:20:40.332Z,10.84
2022-11-08T07:23:09.047Z,10.94
2022-11-08T07:25:36.510Z,10.94
2022-11-08T07:28:08.772Z,10.97
2022-11-08T07:30:36.190Z,11.06
2022-11-08T07:33:04.023Z,11.17
2022-11-08T07:35:31.087Z,11.28
2022-11-08T07:37:58.485Z,11.27
2022-11-08T07:40:25.664Z,11.21
2022-11-08T07:45:40.734Z,11.31
2022-11-08T07:48:12.311Z,11.38
2022-11-08T07:50:43.176Z,11.53
2022-11-08T07:53:10.889Z,11.50
2022-11-08T07:55:41.501Z,11.46
2022-11-08T07:58:10.822Z,11.72
2022-11-08T08:00:39.850Z,11.71
2022-11-08T08:03:09.549Z,11.68
2022-11-08T08:05:39.241Z,11.73
2022-11-08T08:08:07.362Z,11.81
2022-11-08T08:10:35.282Z,11.89
2022-11-08T08:13:03.013Z,11.88
2022-11-08T08:15:30.218Z,11.97
2022-11-08T08:18:00.440Z,11.97
2022-11-08T08:20:27.765Z,11.97
2022-11-08T08:22:54.771Z,12.00
2022-11-08T08:25:22.030Z,12.16
2022-11-08T08:27:50.885Z,12.20
2022-11-08T08:30:18.858Z,12.30
2022-11-08T08:32:53.522Z,12.18
2022-11-08T08:35:29.673Z,12.36
2022-11-08T08:38:01.195Z,12.44
2022-11-08T08:40:28.568Z,12.38
2022-11-08T08:42:57.948Z,12.36
2022-11-08T08:45:25.519Z,12.38
2022-11-08T08:47:54.880Z,12.45
2022-11-08T08:50:23.066Z,12.49
2022-11-08T08:52:50.228Z,12.48
2022-11-08T08:55:18.213Z,12.51
2022-11-08T08:57:46.831Z,12.55
2022-11-08T09:03:10.115Z,12.56
2022-11-08T09:05:38.111Z,12.54
2022-11-08T09:08:05.257Z,12.73
2022-11-08T09:10:33.039Z,12.62
2022-11-08T09:13:02.253Z,12.48
2022-11-08T09:15:29.780Z,12.57
2022-11-08T09:17:57.857Z,12.56
2022-11-08T09:20:25.899Z,12.68
2022-11-08T09:22:53.003Z,12.72
2022-11-08T09:25:20.080Z,12.73
2022-11-08T09:27:48.048Z,12.63
2022-11-08T09:30:15.099Z,12.76
2022-11-08T09:35:30.419Z,12.75
2022-11-08T09:37:58.502Z,12.76
2022-11-08T09:40:40.040Z,12.84
2022-11-08T09:43:34.519Z,12.85
2022-11-08T09:46:01.677Z,12.79
2022-11-08T09:48:35.421Z,12.83
2022-11-08T09:51:11.579Z,12.69
2022-11-08T09:53:50.306Z,12.80
2022-11-08T09:56:28.029Z,12.96
2022-11-08T09:59:03.370Z,12.95
2022-11-08T10:01:36.735Z,12.94
2022-11-08T10:04:08.269Z,13.11
2022-11-08T10:07:13.917Z,13.14
2022-11-08T10:09:53.064Z,13.27
2022-11-08T10:12:45.123Z,13.21
2022-11-08T10:15:38.478Z,13.43
2022-11-08T10:18:34.544Z,13.54
2022-11-08T10:21:26.660Z,13.58
2022-11-08T10:24:27.279Z,13.66
2022-11-08T10:26:57.860Z,13.75
2022-11-08T10:29:36.795Z,13.84
2022-11-08T10:32:15.119Z,13.80
2022-11-08T10:34:50.517Z,14.00
2022-11-08T10:37:18.672Z,14.05
2022-11-08T10:39:56.652Z,14.17
2022-11-08T10:42:47.400Z,14.34
2022-11-08T10:45:14.668Z,14.31
2022-11-08T10:47:45.708Z,14.50
2022-11-08T10:50:16.182Z,14.39
2022-11-08T10:52:56.078Z,14.38
2022-11-08T10:55:35.070Z,14.49
2022-11-08T10:58:02.182Z,14.52
2022-11-08T11:00:33.730Z,14.69
2022-11-08T11:03:06.950Z,14.77
2022-11-08T11:05:35.546Z,14.77
2022-11-08T11:08:08.615Z,14.85
2022-11-08T11:10:50.117Z,14.84
2022-11-08T11:16:05.786Z,15.04
2022-11-08T11:18:51.084Z,15.15
2022-11-08T11:21:21.073Z,15.21
2022-11-08T11:23:56.620Z,15.16
2022-11-08T11:26:29.669Z,15.32
2022-11-08T11:29:02.655Z,15.40
2022-11-08T11:31:31.091Z,15.49
2022-11-08T11:34:00.095Z,15.45
2022-11-08T11:36:30.591Z,15.62
2022-11-08T11:39:07.102Z,15.79
2022-11-08T11:41:49.124Z,15.88
2022-11-08T11:44:21.195Z,15.91
2022-11-08T11:46:54.084Z,15.95
2022-11-08T11:49:22.390Z,15.95
2022-11-08T11:51:55.131Z,16.00
2022-11-08T11:54:30.361Z,16.03
2022-11-08T11:57:29.753Z,16.13
2022-11-08T12:00:10.301Z,16.02
2022-11-08T12:02:58.947Z,16.07
2022-11-08T12:05:44.113Z,16.09
2022-11-08T12:08:35.819Z,16.05
2022-11-08T12:11:33.399Z,16.07
2022-11-08T12:14:12.551Z,16.11
2022-11-08T12:16:51.708Z,16.05
2022-11-08T12:19:47.124Z,16.20
2022-11-08T12:22:29.372Z,16.37
2022-11-08T12:25:22.835Z,16.49
2022-11-08T12:28:17.150Z,16.51
2022-11-08T12:30:57.065Z,16.56
2022-11-08T12:33:46.329Z,16.48
2022-11-08T12:36:29.707Z,16.70
2022-11-08T12:39:02.635Z,16.77
2022-11-08T12:42:11.225Z,16.99
2022-11-08T12:45:04.405Z,17.09
2022-11-08T12:47:44.173Z,17.28
2022-11-08T12:50:32.801Z,17.35
2022-11-08T12:53:12.015Z,17.38
2022-11-08T12:55:42.329Z,17.55
2022-11-08T12:58:36.907Z,17.55
2022-11-08T13:01:11.019Z,17.52
2022-11-08T13:03:47.015Z,17.66
2022-11-08T13:06:33.210Z,17.59
2022-11-08T13:09:29.311Z,17.56
2022-11-08T13:12:41.031Z,17.67
2022-11-08T13:15:24.200Z,17.64
2022-11-08T13:18:06.569Z,17.69
2022-11-08T13:20:38.475Z,17.57
2022-11-08T13:23:13.856Z,17.72
2022-11-08T13:25:43.293Z,17.74
2022-11-08T13:28:44.989Z,17.88
2022-11-08T13:31:23.332Z,17.96
2022-11-08T13:34:01.385Z,18.01
2022-11-08T13:36:57.648Z,17.98
2022-11-08T13:39:36.805Z,17.96
2022-11-08T13:42:16.287Z,17.95
2022-11-08T13:44:55.494Z,18.00
2022-11-08T13:47:34.636Z,17.96
2022-11-08T13:50:29.766Z,17.97
2022-11-08T13:53:24.219Z,18.03
2022-11-08T13:55:53.923Z,18.11
2022-11-08T13:58:36.162Z,18.09
2022-11-08T14:01:23.607Z,18.05
2022-11-08T14:03:50.864Z,18.04
2022-11-08T14:06:47.405Z,18.02
2022-11-08T14:09:33.464Z,17.92
2022-11-08T14:12:11.263Z,18.09
2022-11-08T14:14:47.473Z,18.11
2022-11-08T14:17:20.681Z,18.14
2022-11-08T14:19:48.838Z,18.25
2022-11-08T14:22:25.172Z,18.23
2022-11-08T14:24:55.451Z,18.06
2022-11-08T14:27:37.686Z,18.13
2022-11-08T14:30:14.482Z,18.06
2022-11-08T14:32:41.553Z,18.15
2022-11-08T14:35:26.005Z,18.02
2022-11-08T14:37:53.978Z,17.89
2022-11-08T14:40:24.434Z,17.91
2022-11-08T14:42:52.261Z,17.90
2022-11-08T14:45:25.731Z,17.85
2022-11-08T14:47:56.929Z,17.75
2022-11-08T14:50:29.497Z,17.69
2022-11-08T14:52:56.877Z,17.61
2022-11-08T14:55:25.276Z,17.70
2022-11-08T14:57:52.405Z,17.63
2022-11-08T15:00:27.047Z,17.46
2022-11-08T15:03:17.731Z,17.54
2022-11-08T15:05:55.956Z,17.40
2022-11-08T15:08:26.047Z,17.35
2022-11-08T15:11:01.893Z,17.29
2022-11-08T15:13:33.083Z,17.15
2022-11-08T15:16:05.280Z,17.17
2022-11-08T15:18:44.055Z,17.09
2022-11-08T15:21:20.131Z,17.08
2022-11-08T15:23:55.545Z,17.04
2022-11-08T15:26:27.468Z,16.98
2022-11-08T15:28:55.702Z,17.00
2022-11-08T15:31:22.944Z,16.81
2022-11-08T15:33:50.078Z,16.76
2022-11-08T15:36:26.664Z,16.81
2022-11-08T15:38:53.935Z,16.72
2022-11-08T15:41:51.377Z,16.67
2022-11-08T15:44:23.541Z,16.61
2022-11-08T15:46:52.646Z,16.59
2022-11-08T15:49:30.122Z,16.54
2022-11-08T15:51:58.910Z,16.54
2022-11-08T15:54:27.226Z,16.56
2022-11-08T15:56:56.663Z,16.51
2022-11-08T15:59:28.009Z,16.47
2022-11-08T16:02:00.228Z,16.43
2022-11-08T16:04:30.674Z,16.13
2022-11-08T16:06:58.244Z,16.30
2022-11-08T16:09:25.462Z,16.23
2022-11-08T16:11:52.657Z,16.08
2022-11-08T16:14:23.081Z,16.14
2022-11-08T16:16:50.915Z,15.96
2022-11-08T16:19:24.272Z,15.73
2022-11-08T16:21:52.637Z,16.00
2022-11-08T16:24:19.722Z,15.99
2022-11-08T16:26:47.407Z,15.92
2022-11-08T16:29:23.829Z,15.91
2022-11-08T16:31:51.998Z,15.87
2022-11-08T16:34:20.046Z,15.91
2022-11-08T16:36:48.837Z,15.86
2022-11-08T16:39:18.617Z,15.82
2022-11-08T16:41:45.903Z,15.79
2022-11-08T16:44:13.163Z,15.76
2022-11-08T16:46:40.413Z,15.71
2022-11-08T16:49:15.441Z,15.62
2022-11-08T16:51:42.682Z,15.56
2022-11-08T16:54:18.744Z,15.51
2022-11-08T16:56:45.996Z,15.42
2022-11-08T16:59:13.353Z,15.47
2022-11-08T17:01:40.853Z,15.52
2022-11-08T17:04:07.844Z,15.36
2022-11-08T17:06:34.998Z,15.34
2022-11-08T17:09:02.217Z,15.35
2022-11-08T17:11:29.196Z,15.34
2022-11-08T17:13:56.828Z,15.29
2022-11-08T17:16:24.170Z,15.18
2022-11-08T17:18:53.067Z,15.37
2022-11-08T17:21:45.396Z,15.41
2022-11-08T17:24:20.944Z,15.45
2022-11-08T17:26:49.478Z,15.46
2022-11-08T17:29:16.528Z,15.56
2022-11-08T17:31:43.639Z,15.51
2022-11-08T17:34:11.123Z,15.31
2022-11-08T17:36:39.914Z,15.58
2022-11-08T17:39:07.739Z,15.42
2022-11-08T17:41:34.807Z,15.44
2022-11-08T17:44:05.597Z,15.30
2022-11-08T17:46:32.940Z,15.37
2022-11-08T17:49:00.212Z,15.35
2022-11-08T17:51:27.661Z,15.29
2022-11-08T17:53:55.027Z,15.26
2022-11-08T17:56:22.155Z,15.17
2022-11-08T17:58:49.199Z,15.01
2022-11-08T18:01:20.524Z,15.07
2022-11-08T18:03:48.419Z,14.96
2022-11-08T18:06:16.948Z,14.86
2022-11-08T18:08:44.617Z,14.90
2022-11-08T18:11:11.891Z,14.83
2022-11-08T18:13:38.977Z,14.77
2022-11-08T18:16:14.363Z,14.57
2022-11-08T18:18:42.887Z,14.52
2022-11-08T18:21:10.844Z,14.51
2022-11-08T18:23:41.414Z,14.45
2022-11-08T18:26:09.211Z,14.31
2022-11-08T18:28:40.976Z,14.28
2022-11-08T18:31:10.593Z,14.35
2022-11-08T18:33:39.171Z,14.31
2022-11-08T18:36:12.035Z,14.19
2022-11-08T18:38:42.150Z,14.12
2022-11-08T18:41:09.480Z,13.93
2022-11-08T18:43:38.470Z,14.02
2022-11-08T18:46:08.117Z,13.90
2022-11-08T18:48:38.878Z,13.93
2022-11-08T18:51:08.639Z,13.84
2022-11-08T18:53:42.522Z,13.80
2022-11-08T18:56:11.215Z,13.75
2022-11-08T18:58:38.440Z,13.70
2022-11-08T19:01:06.739Z,13.73
2022-11-08T19:03:34.803Z,13.68
2022-11-08T19:06:02.211Z,13.63
2022-11-08T19:08:30.914Z,13.63
2022-11-08T19:11:04.453Z,13.46
2022-11-08T19:13:33.323Z,13.59
2022-11-08T19:16:03.363Z,13.59
2022-11-08T19:18:32.193Z,13.48
2022-11-08T19:21:02.827Z,13.56
2022-11-08T19:23:30.525Z,13.49
2022-11-08T19:26:01.890Z,13.41
2022-11-08T19:28:33.116Z,13.49
2022-11-08T19:31:00.574Z,13.49
2022-11-08T19:33:29.105Z,13.48
2022-11-08T19:36:02.145Z,13.37
2022-11-08T19:38:29.646Z,13.31
2022-11-08T19:40:58.420Z,13.39
2022-11-08T19:43:25.762Z,13.36
2022-11-08T19:45:54.770Z,13.36
2022-11-08T19:48:22.095Z,13.32
2022-11-08T19:50:50.846Z,13.25
2022-11-08T19:53:18.031Z,13.30
2022-11-08T19:55:45.217Z,13.29
2022-11-08T19:58:15.939Z,13.30
2022-11-08T20:00:46.611Z,13.28
2022-11-08T20:03:13.740Z,13.23
2022-11-08T20:05:40.959Z,13.25
2022-11-08T20:08:09.868Z,13.15
2022-11-08T20:10:36.977Z,13.07
2022-11-08T20:13:04.174Z,13.21
2022-11-08T20:15:31.281Z,13.21
2022-11-08T20:17:58.454Z,13.20
2022-11-08T20:21:20.063Z,13.21
2022-11-08T20:23:48.218Z,13.12
2022-11-08T20:26:22.109Z,13.14
2022-11-08T20:28:56.650Z,13.10
2022-11-08T20:31:25.692Z,13.02
2022-11-08T20:33:54.815Z,13.07
2022-11-08T20:36:24.445Z,13.02
2022-11-08T20:38:59.912Z,13.11
2022-11-08T20:41:30.251Z,13.05
2022-11-08T20:43:57.433Z,13.00
2022-11-08T20:46:26.250Z,13.03
2022-11-08T20:49:00.346Z,12.98
2022-11-08T20:51:29.034Z,13.00
2022-11-08T20:53:58.277Z,13.01
2022-11-08T20:56:25.797Z,12.98
2022-11-08T20:58:54.040Z,12.86
2022-11-08T21:01:23.616Z,12.72
2022-11-08T21:04:03.696Z,12.96
2022-11-08T21:06:35.818Z,12.89
2022-11-08T21:09:16.927Z,12.91
2022-11-08T21:11:52.728Z,12.94
2022-11-08T21:14:20.653Z,12.87
2022-11-08T21:17:19.742Z,12.83
2022-11-08T21:19:36.067Z,12.83
2022-11-08T21:22:15.355Z,12.83
2022-11-08T21:24:44.106Z,12.85
2022-11-08T21:27:29.925Z,12.85
2022-11-08T21:29:57.492Z,12.83
2022-11-08T21:32:24.889Z,12.84
2022-11-08T21:34:52.155Z,12.80
2022-11-08T21:37:19.891Z,12.76
2022-11-08T21:39:47.207Z,12.74
2022-11-08T21:42:14.573Z,12.77
2022-11-08T21:44:42.031Z,12.73
2022-11-08T21:47:10.044Z,12.70
2022-11-08T21:49:37.899Z,12.67
2022-11-08T21:52:05.463Z,12.63
2022-11-08T21:54:32.785Z,12.65
2022-11-08T21:57:00.436Z,12.62
2022-11-08T21:59:27.945Z,12.63
2022-11-08T22:01:55.599Z,12.60
2022-11-08T22:04:23.766Z,12.63
2022-11-08T22:06:51.497Z,12.62
2022-11-08T22:09:18.624Z,12.55
2022-11-08T22:11:46.015Z,12.52
2022-11-08T22:14:13.264Z,12.54
2022-11-08T22:16:40.517Z,12.53
2022-11-08T22:19:07.987Z,12.50
2022-11-08T22:21:38.628Z,12.48
2022-11-08T22:24:22.559Z,12.47
2022-11-08T22:26:57.599Z,12.45
2022-11-08T22:29:25.558Z,12.44
2022-11-08T22:31:53.334Z,12.42
2022-11-08T22:34:21.449Z,12.39
2022-11-08T22:36:49.991Z,12.43
2022-11-08T22:39:20.103Z,12.43
2022-11-08T22:41:49.378Z,12.39
2022-11-08T22:44:17.077Z,12.24
2022-11-08T22:46:46.283Z,12.38
2022-11-08T22:49:14.630Z,12.35
2022-11-08T22:51:42.583Z,12.37
2022-11-08T22:54:11.108Z,12.28
2022-11-08T22:56:40.493Z,12.11
2022-11-08T22:59:09.137Z,12.39
2022-11-08T23:01:36.714Z,12.39
2022-11-08T23:04:03.868Z,12.40
2022-11-08T23:06:31.289Z,12.36
2022-11-08T23:08:58.581Z,12.26
2022-11-08T23:11:44.370Z,12.36
2022-11-08T23:14:36.489Z,12.30
2022-11-08T23:17:06.408Z,12.33
2022-11-08T23:19:51.983Z,12.32
2022-11-08T23:22:38.472Z,12.27
2022-11-08T23:25:06.386Z,12.31
2022-11-08T23:27:51.981Z,12.29
2022-11-08T23:30:38.028Z,12.26
2022-11-08T23:33:07.120Z,12.27
2022-11-08T23:35:34.290Z,12.27
2022-11-08T23:38:01.380Z,12.26
2022-11-08T23:40:47.058Z,12.21
2022-11-08T23:43:34.231Z,12.21
2022-11-08T23:46:10.356Z,12.14
2022-11-08T23:48:39.253Z,12.09
2022-11-08T23:51:07.706Z,12.12
2022-11-08T23:53:37.389Z,11.92
2022-11-08T23:56:05.541Z,11.86
2022-11-08T23:58:33.286Z,11.99
